createdAt,value
2018-05-07T00:02:13.008Z,4.13
2018-05-07T00:04:39.867Z,2.90
2018-05-07T00:07:06.729Z,3.57
2018-05-07T00:09:33.736Z,3.63
2018-05-07T00:12:00.622Z,3.13
2018-05-07T00:14:27.480Z,3.13
2018-05-07T00:16:54.439Z,3.03
2018-05-07T00:19:21.384Z,2.50
2018-05-07T00:21:48.254Z,2.67
2018-05-07T00:24:15.423Z,2.70
2018-05-07T00:26:42.266Z,3.03
2018-05-07T00:29:09.908Z,3.13
2018-05-07T00:31:37.561Z,3.00
2018-05-07T00:34:05.168Z,2.67
2018-05-07T00:36:32.152Z,2.50
2018-05-07T00:38:59.005Z,3.13
2018-05-07T00:41:25.856Z,3.20
2018-05-07T00:43:53.500Z,2.97
2018-05-07T00:46:20.361Z,2.80
2018-05-07T00:48:47.996Z,2.87
2018-05-07T00:51:14.852Z,3.20
2018-05-07T00:53:41.764Z,2.73
2018-05-07T00:56:08.670Z,2.90
2018-05-07T00:58:36.259Z,3.00
2018-05-07T01:01:03.166Z,2.23
2018-05-07T01:03:30.027Z,2.80
2018-05-07T01:05:56.940Z,3.60
2018-05-07T01:08:23.932Z,2.60
2018-05-07T01:10:50.874Z,2.97
2018-05-07T01:13:17.804Z,3.00
2018-05-07T01:15:44.772Z,3.63
2018-05-07T01:18:11.969Z,3.10
2018-05-07T01:20:38.900Z,3.43
2018-05-07T01:23:06.550Z,2.97
2018-05-07T01:25:33.489Z,2.90
2018-05-07T01:28:00.428Z,3.03
2018-05-07T01:30:27.382Z,2.77
2018-05-07T01:32:55.055Z,3.20
2018-05-07T01:35:22.040Z,2.77
2018-05-07T01:37:48.945Z,2.93
2018-05-07T01:40:15.894Z,2.70
2018-05-07T01:42:42.861Z,2.80
2018-05-07T01:45:10.533Z,2.80
2018-05-07T01:47:37.486Z,2.90
2018-05-07T01:50:04.417Z,3.33
2018-05-07T01:52:32.087Z,3.07
2018-05-07T01:54:58.988Z,3.90
2018-05-07T01:57:25.936Z,4.43
2018-05-07T01:59:52.826Z,4.03
2018-05-07T02:02:20.512Z,5.03
2018-05-07T02:04:47.411Z,3.97
2018-05-07T02:07:15.120Z,5.00
2018-05-07T02:09:42.025Z,4.83
2018-05-07T02:12:08.971Z,5.77
2018-05-07T02:14:36.616Z,5.80
2018-05-07T02:17:04.371Z,5.67
2018-05-07T02:19:31.263Z,6.57
2018-05-07T02:21:58.928Z,5.90
2018-05-07T02:24:25.878Z,5.67
2018-05-07T02:26:52.834Z,5.70
2018-05-07T02:29:19.727Z,4.70
2018-05-07T02:31:46.630Z,4.63
2018-05-07T02:34:13.575Z,4.70
2018-05-07T02:36:40.543Z,4.20
2018-05-07T02:39:08.275Z,4.20
2018-05-07T02:41:35.181Z,3.87
2018-05-07T02:44:02.170Z,4.00
2018-05-07T02:46:29.089Z,4.17
2018-05-07T02:48:56.033Z,4.17
2018-05-07T02:51:22.930Z,3.90
2018-05-07T02:53:49.871Z,3.83
2018-05-07T02:56:16.769Z,3.43
2018-05-07T02:58:44.032Z,3.83
2018-05-07T03:01:11.719Z,3.63
2018-05-07T03:03:38.614Z,3.63
2018-05-07T03:06:05.579Z,3.93
2018-05-07T03:08:32.488Z,3.57
2018-05-07T03:10:59.432Z,3.17
2018-05-07T03:13:26.319Z,3.90
2018-05-07T03:15:54.004Z,3.77
2018-05-07T03:18:21.685Z,3.17
2018-05-07T03:20:48.649Z,3.60
2018-05-07T03:23:15.549Z,4.00
2018-05-07T03:25:42.531Z,4.13
2018-05-07T03:28:09.487Z,3.27
2018-05-07T03:30:36.432Z,3.90
2018-05-07T03:33:03.335Z,3.23
2018-05-07T03:35:30.344Z,4.10
2018-05-07T03:37:57.273Z,3.60
2018-05-07T04:32:31.783Z,4.47
2018-05-07T04:34:58.776Z,4.50
2018-05-07T04:37:26.405Z,4.30
2018-05-07T04:39:53.500Z,4.43
2018-05-07T04:42:20.640Z,4.47
2018-05-07T04:44:47.524Z,4.80
2018-05-07T04:47:14.453Z,5.13
2018-05-07T04:49:41.337Z,5.17
2018-05-07T04:52:08.223Z,5.40
2018-05-07T04:54:35.143Z,4.67
2018-05-07T04:57:02.028Z,5.27
2018-05-07T04:59:29.647Z,6.57
2018-05-07T05:01:57.362Z,5.73
2018-05-07T05:04:24.252Z,5.23
2018-05-07T05:06:51.122Z,4.23
2018-05-07T05:09:18.793Z,5.00
2018-05-07T05:11:46.422Z,4.10
2018-05-07T05:14:13.298Z,4.60
2018-05-07T05:16:40.215Z,4.50
2018-05-07T05:19:07.116Z,4.63
2018-05-07T05:21:34.006Z,4.13
2018-05-07T05:24:00.928Z,4.87
2018-05-07T05:26:27.841Z,4.27
2018-05-07T05:28:54.739Z,3.73
2018-05-07T05:31:21.683Z,4.77
2018-05-07T05:33:48.669Z,4.13
2018-05-07T05:36:16.362Z,3.83
2018-05-07T05:38:43.296Z,5.00
2018-05-07T05:41:10.168Z,5.03
2018-05-07T05:43:37.151Z,4.90
2018-05-07T05:46:04.171Z,4.40
2018-05-07T05:48:31.039Z,4.83
2018-05-07T05:50:57.920Z,4.80
2018-05-07T05:53:24.944Z,4.97
2018-05-07T05:55:52.560Z,4.87
2018-05-07T05:58:19.439Z,4.83
2018-05-07T06:00:46.372Z,4.50
2018-05-07T06:03:13.272Z,4.33
2018-05-07T06:05:40.162Z,3.57
2018-05-07T06:08:07.109Z,4.27
2018-05-07T06:10:34.009Z,4.07
2018-05-07T06:13:00.892Z,4.10
2018-05-07T06:15:27.824Z,3.83
2018-05-07T06:17:54.724Z,4.07
2018-05-07T06:20:22.353Z,3.63
2018-05-07T06:22:49.271Z,4.07
2018-05-07T06:25:16.157Z,4.20
2018-05-07T06:27:43.136Z,3.87
2018-05-07T06:30:10.067Z,3.80
2018-05-07T06:32:37.708Z,3.90
2018-05-07T06:35:04.663Z,4.07
2018-05-07T06:37:31.716Z,3.83
2018-05-07T06:39:58.625Z,4.30
2018-05-07T06:42:25.527Z,3.67
2018-05-07T06:44:52.772Z,4.07
2018-05-07T06:47:19.657Z,4.23
2018-05-07T06:49:46.588Z,3.47
2018-05-07T06:52:13.694Z,3.80
2018-05-07T06:54:41.376Z,3.70
2018-05-07T06:57:08.986Z,4.23
2018-05-07T06:59:35.922Z,4.10
2018-05-07T07:02:02.864Z,3.53
2018-05-07T07:04:29.747Z,3.80
2018-05-07T07:06:56.681Z,3.40
2018-05-07T07:09:23.560Z,3.93
2018-05-07T07:11:51.196Z,3.93
2018-05-07T07:14:18.112Z,3.60
2018-05-07T07:16:44.998Z,3.90
2018-05-07T07:19:11.892Z,3.70
2018-05-07T07:21:38.845Z,4.20
2018-05-07T07:24:05.742Z,4.20
2018-05-07T07:26:32.623Z,3.70
2018-05-07T07:28:59.580Z,4.00
2018-05-07T07:31:26.531Z,3.70
2018-05-07T07:33:53.488Z,3.60
2018-05-07T07:36:20.731Z,3.37
2018-05-07T07:38:47.623Z,3.50
2018-05-07T07:41:15.285Z,4.17
2018-05-07T07:43:43.017Z,3.40
2018-05-07T07:46:09.916Z,3.80
2018-05-07T07:48:36.876Z,3.27
2018-05-07T07:51:03.944Z,3.53
2018-05-07T07:53:30.842Z,3.43
2018-05-07T07:55:58.496Z,3.37
2018-05-07T07:58:25.437Z,3.20
2018-05-07T08:00:52.352Z,2.93
2018-05-07T08:03:19.280Z,2.87
2018-05-07T08:05:46.320Z,2.50
2018-05-07T08:08:13.234Z,2.53
2018-05-07T08:10:40.132Z,2.43
2018-05-07T08:13:07.074Z,2.30
2018-05-07T08:15:34.003Z,2.17
2018-05-07T08:18:02.003Z,2.23
2018-05-07T08:20:28.971Z,2.70
2018-05-07T08:22:55.867Z,2.50
2018-05-07T08:25:22.765Z,2.40
2018-05-07T08:27:49.721Z,1.93
2018-05-07T08:30:16.624Z,2.10
2018-05-07T08:32:43.676Z,1.90
2018-05-07T08:35:10.667Z,1.47
2018-05-07T08:37:37.616Z,2.07
2018-05-07T08:40:04.521Z,2.00
2018-05-07T08:42:31.474Z,1.83
2018-05-07T08:44:58.380Z,2.20
2018-05-07T08:47:25.304Z,2.10
2018-05-07T08:49:52.240Z,2.20
2018-05-07T08:52:19.136Z,2.07
2018-05-07T08:54:46.041Z,2.30
2018-05-07T08:57:13.142Z,2.13
2018-05-07T08:59:40.054Z,1.67
2018-05-07T09:02:07.053Z,2.37
2018-05-07T09:04:33.972Z,2.13
2018-05-07T09:07:00.864Z,2.30
2018-05-07T09:09:27.795Z,2.17
2018-05-07T09:11:54.779Z,1.90
2018-05-07T09:14:21.688Z,1.90
2018-05-07T09:16:48.584Z,1.93
2018-05-07T09:19:16.270Z,2.30
2018-05-07T09:21:43.893Z,2.27
2018-05-07T09:24:11.518Z,1.83
2018-05-07T09:26:38.562Z,2.03
2018-05-07T09:29:05.473Z,1.73
2018-05-07T09:31:32.446Z,2.20
2018-05-07T09:34:00.187Z,2.50
2018-05-07T09:36:27.060Z,2.03
2018-05-07T09:38:53.936Z,1.70
2018-05-07T09:41:20.867Z,1.80
2018-05-07T09:43:47.767Z,2.30
2018-05-07T09:46:14.709Z,1.90
2018-05-07T09:48:41.656Z,1.90
2018-05-07T09:51:08.535Z,1.60
2018-05-07T09:53:35.411Z,1.93
2018-05-07T09:56:02.333Z,2.07
2018-05-07T09:58:29.230Z,2.00
2018-05-07T10:00:56.861Z,1.97
2018-05-07T10:03:23.813Z,2.27
2018-05-07T10:05:50.704Z,2.00
2018-05-07T10:08:17.611Z,1.87
2018-05-07T10:10:45.302Z,2.20
2018-05-07T10:15:45.853Z,2.00
2018-05-07T10:18:12.732Z,1.70
2018-05-07T10:20:39.611Z,2.40
2018-05-07T10:23:06.619Z,2.10
2018-05-07T10:25:33.517Z,1.90
2018-05-07T10:28:01.149Z,1.60
2018-05-07T10:30:28.117Z,1.80
2018-05-07T10:32:55.090Z,1.50
2018-05-07T10:35:22.045Z,1.93
2018-05-07T10:37:49.022Z,1.90
2018-05-07T10:40:15.928Z,1.73
2018-05-07T10:42:42.856Z,1.63
2018-05-07T10:45:10.649Z,1.63
2018-05-07T10:47:37.526Z,1.57
2018-05-07T10:50:04.416Z,1.80
2018-05-07T10:52:31.372Z,1.73
2018-05-07T10:54:58.273Z,1.93
2018-05-07T10:57:25.284Z,1.67
2018-05-07T10:59:52.951Z,1.67
2018-05-07T11:02:19.865Z,1.73
2018-05-07T11:04:47.492Z,1.67
2018-05-07T11:07:14.427Z,1.90
2018-05-07T11:09:41.317Z,1.80
2018-05-07T11:12:09.019Z,1.90
2018-05-07T11:14:35.944Z,1.90
2018-05-07T11:17:02.852Z,1.73
2018-05-07T11:19:29.796Z,1.80
2018-05-07T11:21:56.728Z,1.50
2018-05-07T11:24:23.616Z,1.80
2018-05-07T11:26:51.275Z,1.60
2018-05-07T11:29:18.935Z,1.60
2018-05-07T11:31:46.556Z,2.30
2018-05-07T11:34:13.435Z,1.87
2018-05-07T11:36:40.374Z,1.70
2018-05-07T11:39:07.264Z,1.73
2018-05-07T11:41:34.179Z,1.57
2018-05-07T11:44:01.855Z,1.60
2018-05-07T11:46:28.756Z,1.90
2018-05-07T11:48:55.653Z,1.83
2018-05-07T11:51:22.648Z,1.47
2018-05-07T11:53:49.540Z,1.83
2018-05-07T11:56:16.424Z,1.50
2018-05-07T11:58:43.383Z,1.60
2018-05-07T12:01:10.279Z,1.60
2018-05-07T12:03:37.148Z,1.60
2018-05-07T12:06:04.099Z,1.50
2018-05-07T12:08:31.098Z,1.93
2018-05-07T12:10:58.323Z,1.70
2018-05-07T12:13:25.246Z,1.40
2018-05-07T12:15:52.143Z,1.20
2018-05-07T12:18:19.790Z,1.33
2018-05-07T12:20:47.091Z,1.63
2018-05-07T12:23:13.992Z,1.50
2018-05-07T12:25:40.881Z,1.67
2018-05-07T12:28:07.812Z,1.30
2018-05-07T12:30:34.705Z,1.20
2018-05-07T12:33:01.583Z,1.50
2018-05-07T12:35:29.425Z,1.30
2018-05-07T12:37:56.318Z,1.30
2018-05-07T12:40:23.218Z,1.30
2018-05-07T12:42:50.150Z,1.20
2018-05-07T12:45:17.024Z,1.30
2018-05-07T12:47:43.905Z,1.00
2018-05-07T12:50:10.984Z,1.40
2018-05-07T12:52:37.902Z,1.53
2018-05-07T12:55:04.784Z,1.50
2018-05-07T12:57:31.819Z,1.20
2018-05-07T12:59:58.701Z,1.17
2018-05-07T13:02:25.577Z,1.13
2018-05-07T13:04:52.660Z,1.20
2018-05-07T13:07:19.548Z,0.93
2018-05-07T13:09:46.546Z,1.20
2018-05-07T13:12:14.169Z,1.17
2018-05-07T13:14:41.788Z,1.20
2018-05-07T13:17:08.802Z,1.30
2018-05-07T13:19:35.752Z,0.80
2018-05-07T13:22:02.700Z,0.90
2018-05-07T13:24:29.604Z,1.00
2018-05-07T13:26:57.433Z,1.03
2018-05-07T13:29:24.315Z,1.13
2018-05-07T13:31:51.206Z,1.10
2018-05-07T13:34:18.271Z,0.73
2018-05-07T13:36:45.175Z,1.00
2018-05-07T13:39:12.099Z,1.10
2018-05-07T13:41:39.150Z,1.13
2018-05-07T13:44:06.028Z,1.23
2018-05-07T13:46:32.919Z,1.00
2018-05-07T13:49:00.416Z,0.93
2018-05-07T13:51:28.065Z,1.07
2018-05-07T13:53:55.711Z,1.00
2018-05-07T13:56:22.679Z,0.93
2018-05-07T13:58:50.355Z,0.93
2018-05-07T14:01:17.979Z,1.20
2018-05-07T14:03:44.923Z,0.97
2018-05-07T14:06:11.811Z,0.90
2018-05-07T14:08:38.765Z,1.00
2018-05-07T14:11:05.768Z,1.13
2018-05-07T14:13:32.631Z,1.20
2018-05-07T14:16:00.261Z,1.20
2018-05-07T14:18:27.979Z,1.17
2018-05-07T14:20:54.876Z,1.00
2018-05-07T14:23:22.540Z,0.70
2018-05-07T14:25:49.489Z,1.20
2018-05-07T14:28:16.381Z,1.07
2018-05-07T14:30:43.294Z,1.10
2018-05-07T14:33:10.248Z,1.43
2018-05-07T14:35:37.123Z,1.20
2018-05-07T14:38:04.033Z,2.00
2018-05-07T14:40:30.956Z,0.97
2018-05-07T14:42:57.839Z,1.60
2018-05-07T14:45:25.508Z,1.50
2018-05-07T14:47:53.200Z,1.10
2018-05-07T14:50:20.211Z,1.10
2018-05-07T14:52:47.096Z,1.03
2018-05-07T14:55:14.768Z,1.40
2018-05-07T14:57:41.678Z,1.20
2018-05-07T15:00:08.572Z,1.17
2018-05-07T15:02:35.501Z,1.03
2018-05-07T15:05:02.491Z,0.93
2018-05-07T15:07:29.395Z,1.10
2018-05-07T15:09:56.377Z,1.30
2018-05-07T15:12:23.278Z,1.00
2018-05-07T15:14:50.223Z,1.10
2018-05-07T15:17:17.151Z,0.90
2018-05-07T15:19:44.038Z,1.30
2018-05-07T15:22:10.945Z,1.10
2018-05-07T15:24:46.125Z,0.80
2018-05-07T15:27:13.809Z,1.20
2018-05-07T15:29:40.729Z,1.10
2018-05-07T15:32:07.704Z,1.50
2018-05-07T15:34:34.724Z,1.30
2018-05-07T15:37:01.620Z,1.53
2018-05-07T15:39:29.394Z,1.57
2018-05-07T15:41:56.296Z,1.73
2018-05-07T15:44:23.171Z,1.50
2018-05-07T15:46:50.857Z,1.57
2018-05-07T15:49:17.772Z,1.63
2018-05-07T15:51:45.543Z,2.03
2018-05-07T15:54:13.256Z,1.67
2018-05-07T15:56:40.137Z,1.70
2018-05-07T15:59:07.020Z,1.57
2018-05-07T16:01:34.008Z,1.63
2018-05-07T16:04:00.919Z,1.77
2018-05-07T16:06:27.829Z,1.87
2018-05-07T16:08:54.764Z,1.80
2018-05-07T16:11:21.656Z,1.40
2018-05-07T16:13:48.850Z,1.60
2018-05-07T16:16:15.867Z,1.50
2018-05-07T16:18:42.811Z,1.87
2018-05-07T16:21:09.691Z,1.70
2018-05-07T16:23:36.623Z,2.03
2018-05-07T16:26:03.561Z,1.67
2018-05-07T16:28:30.445Z,2.07
2018-05-07T16:30:57.370Z,1.93
2018-05-07T16:33:24.303Z,2.10
2018-05-07T16:35:51.228Z,1.70
2018-05-07T16:38:18.198Z,1.70
2018-05-07T16:40:45.093Z,1.60
2018-05-07T16:43:12.733Z,1.70
2018-05-07T16:45:39.659Z,1.40
2018-05-07T16:48:06.568Z,1.70
2018-05-07T16:50:33.470Z,1.90
2018-05-07T16:53:00.612Z,1.60
2018-05-07T16:55:27.555Z,1.47
2018-05-07T16:57:54.423Z,1.67
2018-05-07T17:00:22.104Z,1.30
2018-05-07T17:02:49.732Z,1.80
2018-05-07T17:05:16.631Z,2.03
2018-05-07T17:07:44.464Z,2.10
2018-05-07T17:10:12.103Z,2.33
2018-05-07T17:12:39.000Z,1.93
2018-05-07T17:15:05.966Z,1.80
2018-05-07T17:17:32.879Z,1.57
2018-05-07T17:20:00.515Z,1.57
2018-05-07T17:22:28.264Z,1.90
2018-05-07T17:24:55.148Z,1.97
2018-05-07T17:27:22.846Z,1.73
2018-05-07T17:29:49.905Z,1.80
2018-05-07T17:32:17.566Z,1.70
2018-05-07T17:34:44.451Z,1.63
2018-05-07T17:37:11.389Z,1.80
2018-05-07T17:39:38.330Z,1.67
2018-05-07T17:42:05.690Z,2.00
2018-05-07T17:44:51.095Z,1.60
2018-05-07T17:47:36.179Z,2.00
2018-05-07T17:50:03.213Z,1.80
2018-05-07T17:52:30.903Z,1.63
2018-05-07T17:54:57.958Z,2.43
2018-05-07T17:57:24.978Z,2.40
2018-05-07T17:59:53.075Z,1.97
2018-05-07T18:02:20.263Z,2.50
2018-05-07T18:04:47.199Z,2.27
2018-05-07T18:07:14.821Z,1.70
2018-05-07T18:09:42.253Z,1.80
2018-05-07T18:12:09.579Z,2.20
2018-05-07T18:14:36.458Z,2.10
2018-05-07T18:17:04.140Z,1.60
2018-05-07T18:19:31.080Z,1.77
2018-05-07T18:21:58.011Z,1.90
2018-05-07T18:24:24.911Z,1.80
2018-05-07T18:26:51.889Z,2.40
2018-05-07T18:29:18.779Z,2.10
2018-05-07T18:31:45.679Z,2.10
2018-05-07T18:34:12.663Z,2.00
2018-05-07T18:36:39.633Z,1.77
2018-05-07T18:39:06.532Z,1.90
2018-05-07T18:41:34.239Z,2.40
2018-05-07T18:44:01.299Z,2.77
2018-05-07T18:46:28.346Z,2.50
2018-05-07T18:48:55.293Z,2.53
2018-05-07T18:51:22.179Z,3.13
2018-05-07T18:53:49.103Z,3.00
2018-05-07T18:56:16.046Z,3.03
2018-05-07T18:58:42.924Z,2.90
2018-05-07T19:01:10.564Z,2.77
2018-05-07T19:03:37.492Z,2.80
2018-05-07T19:06:04.384Z,2.47
2018-05-07T19:08:32.012Z,2.27
2018-05-07T19:10:58.940Z,2.70
2018-05-07T19:13:25.835Z,2.60
2018-05-07T19:15:53.479Z,2.53
2018-05-07T19:18:20.508Z,2.60
2018-05-07T19:20:47.383Z,2.47
2018-05-07T19:23:15.009Z,3.20
2018-05-07T19:25:41.941Z,3.63
2018-05-07T19:28:08.839Z,3.50
2018-05-07T19:30:35.729Z,3.10
2018-05-07T19:33:02.698Z,2.87
2018-05-07T19:35:29.615Z,3.33
2018-05-07T19:37:56.512Z,2.80
2018-05-07T19:40:23.503Z,2.77
2018-05-07T19:42:50.387Z,3.33
2018-05-07T19:45:17.280Z,2.77
2018-05-07T19:47:44.344Z,3.60
2018-05-07T19:50:11.228Z,2.90
2018-05-07T19:52:38.123Z,4.03
2018-05-07T19:55:05.884Z,3.30
2018-05-07T19:57:32.765Z,3.47
2018-05-07T19:59:59.653Z,3.10
2018-05-07T20:02:27.471Z,3.03
2018-05-07T20:04:54.363Z,2.90
2018-05-07T20:07:21.243Z,2.90
2018-05-07T20:09:48.367Z,3.33
2018-05-07T20:12:15.326Z,2.67
2018-05-07T20:14:42.155Z,3.17
2018-05-07T20:17:09.840Z,3.23
2018-05-07T20:19:36.792Z,2.90
2018-05-07T20:22:03.684Z,3.23
2018-05-07T20:24:30.701Z,3.00
2018-05-07T20:26:57.580Z,3.40
2018-05-07T20:29:24.469Z,3.00
2018-05-07T20:31:51.531Z,3.00
2018-05-07T20:34:18.421Z,3.60
2018-05-07T20:36:45.307Z,3.20
2018-05-07T20:39:12.416Z,3.10
2018-05-07T20:41:39.312Z,3.23
2018-05-07T20:44:06.211Z,3.00
2018-05-07T20:46:33.128Z,3.27
2018-05-07T20:49:00.003Z,3.63
2018-05-07T20:51:26.893Z,3.03
2018-05-07T20:53:53.837Z,3.17
2018-05-07T20:56:20.735Z,2.80
2018-05-07T20:58:47.624Z,3.13
2018-05-07T21:01:14.562Z,3.53
2018-05-07T21:03:41.459Z,2.90
2018-05-07T21:06:08.435Z,3.40
2018-05-07T21:08:35.452Z,3.37
2018-05-07T21:11:02.368Z,3.07
2018-05-07T21:13:29.250Z,3.07
2018-05-07T21:15:56.191Z,2.83
2018-05-07T21:18:23.100Z,3.23
2018-05-07T21:20:49.997Z,3.20
2018-05-07T21:23:17.244Z,3.20
2018-05-07T21:25:44.137Z,3.07
2018-05-07T21:28:11.016Z,2.80
2018-05-07T21:30:37.970Z,2.97
2018-05-07T21:33:04.870Z,3.37
2018-05-07T21:35:32.601Z,2.93
2018-05-07T21:37:59.579Z,3.33
2018-05-07T21:40:26.516Z,3.20
2018-05-07T21:42:54.147Z,3.33
2018-05-07T21:45:21.090Z,3.30
2018-05-07T21:47:48.003Z,3.10
2018-05-07T21:50:14.899Z,3.07
2018-05-07T21:52:41.819Z,2.87
2018-05-07T21:55:09.458Z,3.47
2018-05-07T21:57:36.351Z,3.23
2018-05-07T22:00:03.368Z,2.87
2018-05-07T22:02:30.280Z,3.03
2018-05-07T22:04:57.169Z,3.20
2018-05-07T22:07:24.128Z,3.30
2018-05-07T22:09:51.019Z,3.10
2018-05-07T22:12:17.957Z,2.83
2018-05-07T22:14:44.856Z,3.20
2018-05-07T22:17:11.748Z,4.00
2018-05-07T22:19:39.387Z,3.37
2018-05-07T22:22:06.349Z,3.07
2018-05-07T22:24:33.960Z,3.10
2018-05-07T22:27:00.842Z,3.40
2018-05-07T22:29:27.777Z,2.47
2018-05-07T22:31:54.700Z,3.50
2018-05-07T22:34:21.587Z,3.10
2018-05-07T22:36:49.568Z,2.90
2018-05-07T22:39:17.192Z,3.57
2018-05-07T22:41:44.090Z,2.80
2018-05-07T22:44:11.327Z,2.90
2018-05-07T22:46:38.959Z,2.77
2018-05-07T22:49:05.843Z,3.10
2018-05-07T22:51:32.900Z,3.70
2018-05-07T22:53:59.786Z,3.00
2018-05-07T22:56:26.723Z,2.90
2018-05-07T22:58:53.668Z,3.10
2018-05-07T23:01:20.571Z,2.80
2018-05-07T23:03:48.196Z,3.47
2018-05-07T23:06:15.153Z,2.90
2018-05-07T23:08:42.042Z,3.17
2018-05-07T23:11:08.930Z,2.80
2018-05-07T23:13:35.859Z,3.07
2018-05-07T23:16:02.857Z,3.17
2018-05-07T23:18:30.482Z,3.10
2018-05-07T23:20:57.466Z,2.90
2018-05-07T23:23:25.101Z,3.00
2018-05-07T23:25:52.764Z,3.50
2018-05-07T23:28:19.687Z,3.30
2018-05-07T23:30:46.560Z,3.23
2018-05-07T23:33:13.455Z,3.30
2018-05-07T23:35:40.477Z,4.03
2018-05-07T23:38:08.104Z,2.93
2018-05-07T23:40:34.979Z,3.60
2018-05-07T23:43:02.651Z,3.60
2018-05-07T23:45:30.342Z,3.70
2018-05-07T23:47:57.227Z,3.20
2018-05-07T23:50:24.168Z,3.60
2018-05-07T23:52:51.064Z,2.97
2018-05-07T23:55:17.989Z,3.50
2018-05-07T23:57:45.765Z,4.23
